Share

Dara'a, Syria

Marka International (OJAM) Elev 2556 ft | 31.97 °N, 35.99 °E | Change Station

Current weather conditions updated 45 minutes ago

Haze
Haze
66 °F
Feels Like 66 °F
N
16
Wind Variable Wind from North
Sunrise 6:04 AM
Sunset 7:06 PM
Moon Waning Gibbous

Tomorrow is forecast to be Cooler than today.

Pressure 29.86 in
Visibility 3.1 miles
Clouds
Dew Point 45 °F
Humidity 46%
Rainfall 0.00 in
Snow Depth Not available.
UV Not available.
Pollen Not available.
Air Quality Not available.
Flu Activity Not available.
METAR OJAM 171600Z 35014KT 5000 HZ NSC 19/07 Q1011 NOSIG

More Conditions Fewer Conditions

Pressure 29.86 in
Visibility 3.1 miles
Clouds
Dew Point 45 °F
Humidity 46%
Rainfall 0.00 in
Snow Depth Not available.
UV Not available.
Pollen Not available.
Air Quality Not available.
Flu Activity Not available.
METAR OJAM 171600Z 35014KT 5000 HZ NSC 19/07 Q1011 NOSIG

More Conditions Fewer Conditions

10-Day Forecast

Almanac

Astronomy

Apr. 17, 2014 Rise Set
Actual Time 6:04 AM EEST 7:06 PM EEST
Civil Twilight 5:38 AM EEST 7:32 PM EEST
Nautical Twilight 5:08 AM EEST 8:02 PM EEST
Astronomical Twilight 4:37 AM EEST 8:33 PM EEST
Moon 9:24 PM EEST 7:24 AM EEST
Length of Visible Light 13h 53m
Length of Day
13h 02m
Tomorrow will be 1m 54s longer.
Waning Gibbous, 93% of the Moon is Illuminated
Today
Waning Gibbous
Apr 22
Last Quarter
Apr 29
New
May 6
First Quarter
May 14
Full

Today's Extremes

Country Highs Country Lows

Community

  • New Day
    New Day
  • Lake Michigan Sunrise
    Lake Michigan Sunrise
  • sunset from izmir, narlıdere
    sunset from izmir, narlıdere
  • oregon cherry
    oregon cherry
  • Sunset over the Bay
    Sunset over the Bay

WunderPhotos

Upload Photos

1,702,067 photos uploaded!

Nearby

Snow Depth

Not available.

Coastal Water Temperatures

Place Temperature
No Stations Reporting

Earthquake Activity

City Distance Mag. Time & Date
No recent earthquake activity has been reported nearby.
Minimum magnitude displayed is 2.5.

Nearby Weather Stations

There are no personal weather stations in this area.

What do you think?

We're not finished. Please let us know what you like, what you don't like, and what you are still missing.